Forside
METAR-TAF:

METAR-TAF

Lufthavne :

Tri-City Airport

Parsons, Kansas, USA

Breddekreds: 37-19-40N, længdekreds: 095-30-15W, højde: 274 m

Aktuelle vejr

Denne rapport blev lavet for 20 minutter siden, kl. 11:52 UTC
Vind 14 kt fra syd med vindstød på up til 21 kt
Temperatur 10°C
Fugtighed 76%
Tryk 1008 hPa
Sigt: 16.1 km
Overskyet i en højde af 2000 ft

METAR: KPPF 221152Z AUTO 19014G21KT 10SM OVC020 10/06 A2977 RMK AO2 SLP083 T01000061 10100 20050 53003

Tid: 06:12 (12:12 UTC)


TAF: fraværende

Vejrobservationer og prognoser fra mere end 4000 lufthavne (METAR og TAF).

De gule og røde prikker repræsenterer de meteorologiske stationer.

Flyt musen over at se navnet på stationen.

Så klik over at se vejr observationer og prognoser.

At skifte det kort: Klik på de grønne knapper med et sort kors for at zoome ind; på den grønne knap med en bindestreg for at zoome ud; eller på de grønne pile for tilstødende kort.


METAR-TAF: